Whitefish, Canada
Current Conditions -  °F | °C
As of 5:00 AM on Saturday 25 Oct 2014 (Local Time) from CYSB Reporting Station
Overcast Overcast  
Wind Chill: 43°   Ceiling: 1400
Heat Index: 48°   Visibility: 15mi
Dew Point: 45°   Wind: 14mph
Humidity: 87%   Direction: 210°SSW
Pressure: 29.67"   Gusts: NA
Location:  46.37°N, 81.32°W
Report Text: CYSB 250900Z 21012KT 15SM OVC014 09/07 A2967 RMK SC8 SLP056
Loading
Personal Weather Stations






























Interactive Weather Map
Tropical Storm Tracking
New forecast layout! Learn more

10-Day Weather Forecast

Advertisements
Track Severe Weather on mobile